createdAt,value
2019-04-07T00:01:06.677Z,0.00
2019-04-07T00:03:37.309Z,0.00
2019-04-07T00:06:07.489Z,0.00
2019-04-07T00:08:37.897Z,0.00
2019-04-07T00:11:07.537Z,0.00
2019-04-07T00:13:37.257Z,100.00
2019-04-07T00:16:07.215Z,100.00
2019-04-07T00:18:37.412Z,100.00
2019-04-07T00:21:07.177Z,100.00
2019-04-07T00:23:36.984Z,100.00
2019-04-07T00:26:06.785Z,100.00
2019-04-07T00:28:36.788Z,100.00
2019-04-07T00:31:06.609Z,100.00
2019-04-07T00:33:36.585Z,100.00
2019-04-07T00:36:06.345Z,100.00
2019-04-07T00:38:36.325Z,100.00
2019-04-07T00:41:06.797Z,100.00
2019-04-07T00:43:36.846Z,100.00
2019-04-07T00:46:06.548Z,100.00
2019-04-07T00:48:36.478Z,100.00
2019-04-07T00:51:07.807Z,100.00
2019-04-07T00:53:38.846Z,100.00
2019-04-07T00:56:09.388Z,100.00
2019-04-07T00:58:39.159Z,100.00
2019-04-07T01:01:11.616Z,100.00
2019-04-07T01:03:43.018Z,100.00
2019-04-07T01:06:12.972Z,100.00
2019-04-07T01:08:42.905Z,100.00
2019-04-07T01:11:13.452Z,100.00
2019-04-07T01:13:43.224Z,100.00
2019-04-07T01:16:13.287Z,100.00
2019-04-07T01:18:43.705Z,100.00
2019-04-07T01:21:13.819Z,100.00
2019-04-07T01:23:44.645Z,100.00
2019-04-07T01:26:14.425Z,100.00
2019-04-07T01:28:44.154Z,100.00
2019-04-07T01:31:14.400Z,100.00
2019-04-07T01:33:44.354Z,100.00
2019-04-07T01:36:14.047Z,100.00
2019-04-07T01:38:44.341Z,100.00
2019-04-07T01:44:02.622Z,100.00
2019-04-07T01:46:33.986Z,100.00
2019-04-07T01:49:11.743Z,100.00
2019-04-07T01:51:49.662Z,100.00
2019-04-07T01:54:33.525Z,100.00
2019-04-07T01:57:17.006Z,100.00
2019-04-07T02:00:03.416Z,100.00
2019-04-07T02:02:37.266Z,100.00
2019-04-07T02:05:12.304Z,100.00
2019-04-07T02:07:55.405Z,100.00
2019-04-07T02:10:27.441Z,100.00
2019-04-07T02:13:05.943Z,100.00
2019-04-07T02:15:40.581Z,100.00
2019-04-07T02:18:12.374Z,100.00
2019-04-07T02:21:04.338Z,100.00
2019-04-07T02:23:50.957Z,100.00
2019-04-07T02:26:37.788Z,100.00
2019-04-07T02:29:19.232Z,100.00
2019-04-07T02:32:06.189Z,100.00
2019-04-07T02:34:53.767Z,100.00
2019-04-07T02:37:40.971Z,100.00
2019-04-07T02:40:12.592Z,100.00
2019-04-07T02:42:47.027Z,100.00
2019-04-07T02:45:28.332Z,100.00
2019-04-07T02:48:01.058Z,100.00
2019-04-07T02:50:33.350Z,100.00
2019-04-07T02:53:07.889Z,100.00
2019-04-07T02:55:55.501Z,100.00
2019-04-07T02:58:38.917Z,100.00
2019-04-07T03:01:11.469Z,100.00
2019-04-07T03:03:42.873Z,100.00
2019-04-07T03:06:32.478Z,100.00
2019-04-07T03:08:59.436Z,100.00
2019-04-07T03:11:46.584Z,100.00
2019-04-07T03:14:18.303Z,100.00
2019-04-07T03:16:55.828Z,100.00
2019-04-07T03:19:46.735Z,100.00
2019-04-07T03:22:27.838Z,100.00
2019-04-07T03:25:05.593Z,100.00
2019-04-07T03:27:44.414Z,100.00
2019-04-07T03:30:21.810Z,100.00
2019-04-07T03:32:55.378Z,100.00
2019-04-07T03:35:29.066Z,100.00
2019-04-07T03:38:00.824Z,100.00
2019-04-07T03:40:49.616Z,100.00
2019-04-07T03:43:22.017Z,100.00
2019-04-07T03:46:00.299Z,100.00
2019-04-07T03:48:38.094Z,100.00
2019-04-07T03:51:15.204Z,100.00
2019-04-07T03:53:47.433Z,100.00
2019-04-07T03:56:30.820Z,100.00
2019-04-07T03:59:18.343Z,100.00
2019-04-07T04:01:52.398Z,100.00
2019-04-07T04:04:37.257Z,100.00
2019-04-07T04:07:32.350Z,100.00
2019-04-07T04:10:17.352Z,100.00
2019-04-07T04:12:58.652Z,100.00
2019-04-07T04:15:31.186Z,93.67
2019-04-07T04:18:01.272Z,97.67
2019-04-07T04:20:31.074Z,89.73
2019-04-07T04:23:00.886Z,91.48
2019-04-07T04:25:30.626Z,87.42
2019-04-07T04:28:01.226Z,88.98
2019-04-07T04:30:32.025Z,80.17
2019-04-07T04:33:03.905Z,73.12
2019-04-07T04:35:34.007Z,66.83
2019-04-07T04:38:03.965Z,67.45
2019-04-07T04:40:33.615Z,81.05
2019-04-07T04:43:04.649Z,99.24
2019-04-07T04:45:34.626Z,100.00
2019-04-07T04:48:04.775Z,100.00
2019-04-07T04:50:35.376Z,100.00
2019-04-07T04:53:06.184Z,100.00
2019-04-07T04:55:37.275Z,100.00
2019-04-07T04:58:08.767Z,100.00
2019-04-07T05:00:40.434Z,100.00
2019-04-07T05:03:11.234Z,100.00
2019-04-07T05:05:41.386Z,100.00
2019-04-07T05:08:11.468Z,100.00
2019-04-07T05:10:41.658Z,100.00
2019-04-07T05:13:11.526Z,100.00
2019-04-07T05:15:41.124Z,100.00
2019-04-07T05:18:10.891Z,100.00
2019-04-07T05:20:40.871Z,100.00
2019-04-07T05:23:10.985Z,100.00
2019-04-07T05:25:41.556Z,100.00
2019-04-07T05:28:11.343Z,100.00
2019-04-07T05:30:41.449Z,100.00
2019-04-07T05:33:11.324Z,100.00
2019-04-07T05:35:41.282Z,100.00
2019-04-07T05:38:11.328Z,100.00
2019-04-07T05:40:41.183Z,100.00
2019-04-07T05:43:11.880Z,0.00
2019-04-07T05:45:42.011Z,0.00
2019-04-07T05:48:12.203Z,0.00
2019-04-07T05:50:43.017Z,0.00
2019-04-07T05:53:14.833Z,0.00
2019-04-07T05:55:46.025Z,100.00
2019-04-07T05:58:15.913Z,100.00
2019-04-07T06:00:46.989Z,100.00
2019-04-07T06:03:18.719Z,100.00
2019-04-07T06:05:51.184Z,100.00
2019-04-07T06:08:27.741Z,100.00
2019-04-07T06:10:56.559Z,100.00
2019-04-07T06:13:23.683Z,0.00
2019-04-07T06:15:54.066Z,0.00
2019-04-07T06:18:23.980Z,0.00
2019-04-07T06:20:53.780Z,0.00
2019-04-07T06:23:28.573Z,0.00
2019-04-07T06:25:59.463Z,100.00
2019-04-07T06:28:29.294Z,100.00
2019-04-07T06:31:00.247Z,100.00
2019-04-07T06:33:32.047Z,100.00
2019-04-07T06:36:01.941Z,100.00
2019-04-07T06:38:35.901Z,100.00
2019-04-07T06:41:04.817Z,100.00
2019-04-07T06:43:36.637Z,100.00
2019-04-07T06:46:10.920Z,100.00
2019-04-07T06:48:58.482Z,100.00
2019-04-07T06:51:48.093Z,100.00
2019-04-07T06:54:36.261Z,0.00
2019-04-07T06:57:08.446Z,0.00
2019-04-07T06:59:49.060Z,100.00
2019-04-07T07:02:30.215Z,100.00
2019-04-07T07:05:05.195Z,0.00
2019-04-07T07:07:48.173Z,0.00
2019-04-07T07:10:40.067Z,0.00
2019-04-07T07:13:29.243Z,0.00
2019-04-07T07:16:10.428Z,0.00
2019-04-07T07:18:42.542Z,0.00
2019-04-07T07:21:33.975Z,0.00
2019-04-07T07:24:02.363Z,0.00
2019-04-07T07:26:35.271Z,0.00
2019-04-07T07:29:06.424Z,0.00
2019-04-07T07:31:35.941Z,0.00
2019-04-07T07:34:09.362Z,0.00
2019-04-07T07:36:38.226Z,37.55
2019-04-07T07:39:11.366Z,0.00
2019-04-07T07:41:40.952Z,0.00
2019-04-07T07:44:10.800Z,0.00
2019-04-07T07:46:43.186Z,19.29
2019-04-07T07:49:13.629Z,50.85
2019-04-07T07:51:46.945Z,72.21
2019-04-07T07:54:18.311Z,79.62
2019-04-07T07:56:50.214Z,100.00
2019-04-07T07:59:20.097Z,100.00
2019-04-07T08:01:51.656Z,100.00
2019-04-07T08:04:24.915Z,100.00
2019-04-07T08:06:54.475Z,100.00
2019-04-07T08:09:26.005Z,100.00
2019-04-07T08:11:55.841Z,100.00
2019-04-07T08:14:26.041Z,100.00
2019-04-07T08:17:00.169Z,100.00
2019-04-07T08:19:30.859Z,100.00
2019-04-07T08:22:03.187Z,100.00
2019-04-07T08:24:35.158Z,100.00
2019-04-07T08:27:05.180Z,100.00
2019-04-07T08:29:37.100Z,100.00
2019-04-07T08:32:06.664Z,100.00
2019-04-07T08:34:37.224Z,100.00
2019-04-07T08:37:08.415Z,100.00
2019-04-07T08:39:38.738Z,0.00
2019-04-07T08:42:11.806Z,0.00
2019-04-07T08:44:40.826Z,100.00
2019-04-07T08:47:18.854Z,100.00
2019-04-07T08:49:47.084Z,100.00
2019-04-07T08:52:17.485Z,100.00
2019-04-07T08:54:50.330Z,0.00
2019-04-07T08:57:19.711Z,100.00
2019-04-07T08:59:52.772Z,100.00
2019-04-07T09:02:26.862Z,100.00
2019-04-07T09:04:55.889Z,100.00
2019-04-07T09:07:28.720Z,100.00
2019-04-07T09:09:58.727Z,100.00
2019-04-07T09:12:30.970Z,100.00
2019-04-07T09:15:03.158Z,100.00
2019-04-07T09:17:44.595Z,0.00
2019-04-07T09:20:14.675Z,0.00
2019-04-07T09:22:51.559Z,100.00
2019-04-07T09:25:27.354Z,100.00
2019-04-07T09:28:15.344Z,100.00
2019-04-07T09:30:48.290Z,100.00
2019-04-07T09:33:21.590Z,100.00
2019-04-07T09:36:00.614Z,100.00
2019-04-07T09:38:33.602Z,100.00
2019-04-07T09:41:09.444Z,0.00
2019-04-07T09:43:47.362Z,0.00
2019-04-07T09:46:19.113Z,0.00
2019-04-07T09:48:59.986Z,0.00
2019-04-07T09:51:32.051Z,0.00
2019-04-07T09:54:07.158Z,0.00
2019-04-07T09:56:56.156Z,0.00
2019-04-07T09:59:40.025Z,0.00
2019-04-07T10:02:32.036Z,0.00
2019-04-07T10:05:19.012Z,0.00
2019-04-07T10:08:03.336Z,0.00
2019-04-07T10:10:53.016Z,0.00
2019-04-07T10:13:26.444Z,100.00
2019-04-07T10:15:58.332Z,100.00
2019-04-07T10:18:42.925Z,100.00
2019-04-07T10:21:18.351Z,100.00
2019-04-07T10:23:51.575Z,100.00
2019-04-07T10:26:33.744Z,100.00
2019-04-07T10:29:21.951Z,100.00
2019-04-07T10:32:08.843Z,0.00
2019-04-07T10:34:40.790Z,0.00
2019-04-07T10:37:25.502Z,100.00
2019-04-07T10:40:19.538Z,100.00
2019-04-07T10:42:47.310Z,100.00
2019-04-07T10:45:22.854Z,100.00
2019-04-07T10:47:55.185Z,100.00
2019-04-07T10:50:36.762Z,100.00
2019-04-07T10:53:22.779Z,100.00
2019-04-07T10:55:57.457Z,100.00
2019-04-07T10:58:46.108Z,100.00
2019-04-07T11:01:17.765Z,100.00
2019-04-07T11:03:59.463Z,100.00
2019-04-07T11:06:47.119Z,100.00
2019-04-07T11:09:37.734Z,100.00
2019-04-07T11:12:27.625Z,100.00
2019-04-07T11:15:20.313Z,0.00
2019-04-07T11:18:04.202Z,100.00
2019-04-07T11:20:41.328Z,100.00
2019-04-07T11:23:13.053Z,100.00
2019-04-07T11:25:46.118Z,100.00
2019-04-07T11:28:28.844Z,100.00
2019-04-07T11:31:00.542Z,100.00
2019-04-07T11:33:32.879Z,100.00
2019-04-07T11:36:08.430Z,100.00
2019-04-07T11:38:54.898Z,100.00
2019-04-07T11:41:36.059Z,100.00
2019-04-07T11:44:22.885Z,0.00
2019-04-07T11:47:02.084Z,0.00
2019-04-07T11:49:34.557Z,100.00
2019-04-07T11:52:18.456Z,100.00
2019-04-07T11:55:08.548Z,100.00
2019-04-07T11:58:02.925Z,100.00
2019-04-07T12:00:39.808Z,100.00
2019-04-07T12:03:26.877Z,100.00
2019-04-07T12:05:57.068Z,0.00
2019-04-07T12:08:44.513Z,0.00
2019-04-07T12:11:19.952Z,100.00
2019-04-07T12:14:00.852Z,0.00
2019-04-07T12:16:33.737Z,0.00
2019-04-07T12:19:20.379Z,0.00
2019-04-07T12:22:10.418Z,0.00
2019-04-07T12:24:44.464Z,0.00
2019-04-07T12:27:32.001Z,0.00
2019-04-07T12:30:21.457Z,0.00
2019-04-07T12:32:55.888Z,100.00
2019-04-07T12:35:37.719Z,100.00
2019-04-07T12:38:26.426Z,0.00
2019-04-07T12:41:11.483Z,0.00
2019-04-07T12:43:37.769Z,0.00
2019-04-07T12:46:25.425Z,0.00
2019-04-07T12:49:12.210Z,0.00
2019-04-07T12:51:46.081Z,0.00
2019-04-07T12:54:23.731Z,0.00
2019-04-07T12:57:12.186Z,0.00
2019-04-07T12:59:54.961Z,0.00
2019-04-07T13:02:34.983Z,0.00
2019-04-07T13:05:19.655Z,0.00
2019-04-07T13:08:01.604Z,0.00
2019-04-07T13:10:51.231Z,0.00
2019-04-07T13:13:29.555Z,0.00
2019-04-07T13:16:09.176Z,100.00
2019-04-07T13:18:42.463Z,100.00
2019-04-07T13:21:25.059Z,100.00
2019-04-07T13:24:12.695Z,100.00
2019-04-07T13:26:47.326Z,100.00
2019-04-07T13:29:35.894Z,100.00
2019-04-07T13:32:07.665Z,100.00
2019-04-07T13:34:55.418Z,100.00
2019-04-07T13:37:26.602Z,100.00
2019-04-07T13:40:05.020Z,100.00
2019-04-07T13:42:42.832Z,100.00
2019-04-07T13:45:16.856Z,100.00
2019-04-07T13:47:49.497Z,100.00
2019-04-07T13:50:33.311Z,100.00
2019-04-07T13:53:25.807Z,100.00
2019-04-07T13:56:05.112Z,100.00
2019-04-07T13:58:52.843Z,100.00
2019-04-07T14:01:24.021Z,100.00
2019-04-07T14:04:12.086Z,100.00
2019-04-07T14:06:45.888Z,100.00
2019-04-07T14:09:21.111Z,100.00
2019-04-07T14:12:04.207Z,100.00
2019-04-07T14:14:35.998Z,100.00
2019-04-07T14:17:24.758Z,0.00
2019-04-07T14:19:59.488Z,0.00
2019-04-07T14:22:31.090Z,0.00
2019-04-07T14:25:05.338Z,0.00
2019-04-07T14:27:42.693Z,0.00
2019-04-07T14:30:14.560Z,0.00
2019-04-07T14:32:52.065Z,0.00
2019-04-07T14:35:26.932Z,0.00
2019-04-07T14:38:15.852Z,0.00
2019-04-07T14:41:01.105Z,0.00
2019-04-07T14:43:34.438Z,0.00
2019-04-07T14:46:23.900Z,0.00
2019-04-07T14:48:55.251Z,0.00
2019-04-07T14:51:42.828Z,0.00
2019-04-07T14:54:29.246Z,0.00
2019-04-07T14:57:13.263Z,0.00
2019-04-07T14:59:45.509Z,0.00
2019-04-07T15:02:18.295Z,0.00
2019-04-07T15:04:50.958Z,0.00
2019-04-07T15:07:40.826Z,0.00
2019-04-07T15:10:17.975Z,0.00
2019-04-07T15:13:01.754Z,0.00
2019-04-07T15:15:32.524Z,0.00
2019-04-07T15:18:05.808Z,0.00
2019-04-07T15:20:42.698Z,100.00
2019-04-07T15:23:12.187Z,100.00
2019-04-07T15:25:46.026Z,100.00
2019-04-07T15:28:17.405Z,100.00
2019-04-07T15:30:50.433Z,100.00
2019-04-07T15:33:21.153Z,100.00
2019-04-07T15:35:52.432Z,100.00
2019-04-07T15:38:26.718Z,100.00
2019-04-07T15:41:07.619Z,100.00
2019-04-07T15:43:40.074Z,100.00
2019-04-07T15:46:10.595Z,100.00
2019-04-07T15:48:48.552Z,100.00
2019-04-07T15:51:22.999Z,100.00
2019-04-07T15:53:58.623Z,100.00
2019-04-07T15:56:30.400Z,100.00
2019-04-07T15:59:02.011Z,100.00
2019-04-07T16:01:33.722Z,100.00
2019-04-07T16:04:08.634Z,100.00
2019-04-07T16:06:39.501Z,100.00
2019-04-07T16:09:28.396Z,100.00
2019-04-07T16:11:44.615Z,100.00
2019-04-07T16:14:18.083Z,100.00
2019-04-07T16:16:47.816Z,100.00
2019-04-07T16:19:24.920Z,100.00
2019-04-07T16:21:49.404Z,100.00
2019-04-07T16:24:22.710Z,100.00
2019-04-07T16:26:53.501Z,100.00
2019-04-07T16:29:25.589Z,100.00
2019-04-07T16:31:58.686Z,100.00
2019-04-07T16:34:29.137Z,100.00
2019-04-07T16:37:07.315Z,100.00
2019-04-07T16:39:38.772Z,100.00
2019-04-07T16:42:11.029Z,100.00
2019-04-07T16:44:43.882Z,100.00
2019-04-07T16:47:21.871Z,100.00
2019-04-07T16:49:48.839Z,100.00
2019-04-07T16:52:19.002Z,100.00
2019-04-07T16:54:49.142Z,100.00
2019-04-07T16:57:18.983Z,100.00
2019-04-07T16:59:49.222Z,92.19
2019-04-07T17:02:22.058Z,86.37
2019-04-07T17:04:52.667Z,85.45
2019-04-07T17:07:23.338Z,83.88
2019-04-07T17:09:56.433Z,83.67
2019-04-07T17:12:26.970Z,81.64
2019-04-07T17:14:57.582Z,77.83
2019-04-07T17:17:28.311Z,77.83
2019-04-07T17:19:59.601Z,70.62
2019-04-07T17:22:31.492Z,62.54
2019-04-07T17:25:05.020Z,1.46
2019-04-07T17:27:33.350Z,49.73
2019-04-07T17:30:03.669Z,40.71
2019-04-07T17:32:35.744Z,36.89
2019-04-07T17:35:07.343Z,42.06
2019-04-07T17:37:37.448Z,42.76
2019-04-07T17:40:13.058Z,32.16
2019-04-07T17:42:42.150Z,15.00
2019-04-07T17:45:30.849Z,4.63
2019-04-07T17:48:19.149Z,0.00
2019-04-07T17:51:09.723Z,0.00
2019-04-07T17:53:50.620Z,0.00
2019-04-07T17:56:24.295Z,0.00
2019-04-07T17:59:00.711Z,0.00
2019-04-07T18:01:41.029Z,0.00
2019-04-07T18:04:18.900Z,0.00
2019-04-07T18:06:57.182Z,0.00
2019-04-07T18:09:28.741Z,0.00
2019-04-07T18:12:18.410Z,0.00
2019-04-07T18:15:04.367Z,0.00
2019-04-07T18:17:48.897Z,0.00
2019-04-07T18:20:40.478Z,0.00
2019-04-07T18:23:34.681Z,0.00
2019-04-07T18:26:10.416Z,0.00
2019-04-07T18:28:45.347Z,0.00
2019-04-07T18:31:37.876Z,0.00
2019-04-07T18:34:27.135Z,0.00
2019-04-07T18:37:13.040Z,0.00
2019-04-07T18:39:52.393Z,0.00
2019-04-07T18:42:21.987Z,0.00
2019-04-07T18:44:57.612Z,0.00
2019-04-07T18:47:32.525Z,0.00
2019-04-07T18:50:21.987Z,0.00
2019-04-07T18:53:10.782Z,0.00
2019-04-07T18:55:42.251Z,0.00
2019-04-07T18:58:26.747Z,0.00
2019-04-07T19:01:13.713Z,0.00
2019-04-07T19:03:51.173Z,0.00
2019-04-07T19:06:30.065Z,0.00
2019-04-07T19:09:12.437Z,0.00
2019-04-07T19:11:50.187Z,0.00
2019-04-07T19:14:40.258Z,0.00
2019-04-07T19:17:01.024Z,0.00
2019-04-07T19:19:35.507Z,0.00
2019-04-07T19:22:26.748Z,0.00
2019-04-07T19:25:11.122Z,0.00
2019-04-07T19:27:54.784Z,0.00
2019-04-07T19:30:43.902Z,0.00
2019-04-07T19:33:19.233Z,0.00
2019-04-07T19:36:10.289Z,0.00
2019-04-07T19:38:52.193Z,0.00
2019-04-07T19:41:31.474Z,0.00
2019-04-07T19:44:07.759Z,0.00
2019-04-07T19:46:39.221Z,0.00
2019-04-07T19:49:22.558Z,0.00
2019-04-07T19:52:09.758Z,0.00
2019-04-07T19:54:49.334Z,0.00
2019-04-07T19:57:28.207Z,0.00
2019-04-07T20:00:02.816Z,0.00
2019-04-07T20:02:45.118Z,0.00
2019-04-07T20:05:21.121Z,0.00
2019-04-07T20:07:56.152Z,0.00
2019-04-07T20:10:28.233Z,0.00
2019-04-07T20:13:09.163Z,0.00
2019-04-07T20:15:58.779Z,0.00
2019-04-07T20:18:36.164Z,0.00
2019-04-07T20:21:13.149Z,0.00
2019-04-07T20:24:04.583Z,0.00
2019-04-07T20:26:46.025Z,0.00
2019-04-07T20:29:20.125Z,0.00
2019-04-07T20:31:57.514Z,0.00
2019-04-07T20:34:29.642Z,0.00
2019-04-07T20:37:13.247Z,0.00
2019-04-07T20:39:58.849Z,0.00
2019-04-07T20:42:38.857Z,0.00
2019-04-07T20:45:18.732Z,0.00
2019-04-07T20:48:05.105Z,0.00
2019-04-07T20:50:46.073Z,0.00
2019-04-07T20:53:29.836Z,0.00
2019-04-07T20:56:00.442Z,0.00
2019-04-07T20:58:47.361Z,0.00
2019-04-07T21:01:17.330Z,0.00
2019-04-07T21:03:49.376Z,0.00
2019-04-07T21:06:32.108Z,0.00
2019-04-07T21:09:09.927Z,0.00
2019-04-07T21:11:58.785Z,0.00
2019-04-07T21:14:47.315Z,0.00
2019-04-07T21:17:21.833Z,0.00
2019-04-07T21:20:11.722Z,0.00
2019-04-07T21:22:56.141Z,0.00
2019-04-07T21:25:41.254Z,0.00
2019-04-07T21:28:16.747Z,0.00
2019-04-07T21:30:50.399Z,0.00
2019-04-07T21:33:28.215Z,0.00
2019-04-07T21:36:06.454Z,0.00
2019-04-07T21:38:54.840Z,0.00
2019-04-07T21:41:31.233Z,0.00
2019-04-07T21:44:18.886Z,0.00
2019-04-07T21:47:06.477Z,0.00
2019-04-07T21:49:46.948Z,0.00
2019-04-07T21:52:21.724Z,0.00
2019-04-07T21:54:51.672Z,0.00
2019-04-07T21:57:24.469Z,0.00
2019-04-07T21:59:59.908Z,0.00
2019-04-07T22:02:33.444Z,0.00
2019-04-07T22:05:04.902Z,0.00
2019-04-07T22:07:48.619Z,0.00
2019-04-07T22:10:20.470Z,0.00
2019-04-07T22:12:50.300Z,0.00
2019-04-07T22:15:20.060Z,0.00
2019-04-07T22:17:50.067Z,0.00
2019-04-07T22:20:20.621Z,0.00
2019-04-07T22:22:54.349Z,0.00
2019-04-07T22:25:33.517Z,0.00
2019-04-07T22:28:03.441Z,0.00
2019-04-07T22:30:40.140Z,0.00
2019-04-07T22:33:10.433Z,0.00
2019-04-07T22:35:42.736Z,0.00
2019-04-07T22:38:12.269Z,0.00
2019-04-07T22:40:41.765Z,0.00
2019-04-07T22:43:16.721Z,0.00
2019-04-07T22:45:55.081Z,0.00
2019-04-07T22:48:22.850Z,0.00
2019-04-07T22:50:51.835Z,0.00
2019-04-07T22:53:27.431Z,0.00
2019-04-07T22:55:56.903Z,0.00
2019-04-07T22:58:27.820Z,0.00
2019-04-07T23:00:59.306Z,0.00
2019-04-07T23:03:32.237Z,0.00
2019-04-07T23:06:05.185Z,0.00
2019-04-07T23:08:36.990Z,0.00
2019-04-07T23:11:09.264Z,0.00
2019-04-07T23:13:39.726Z,0.00
2019-04-07T23:16:14.936Z,0.00
2019-04-07T23:18:44.497Z,0.00
2019-04-07T23:21:14.966Z,0.00
2019-04-07T23:23:44.928Z,0.00
2019-04-07T23:26:14.683Z,0.00
2019-04-07T23:28:44.500Z,0.00
2019-04-07T23:31:14.183Z,0.00
2019-04-07T23:33:44.084Z,0.00
2019-04-07T23:36:15.748Z,0.00
2019-04-07T23:38:45.386Z,0.00
2019-04-07T23:41:16.804Z,0.00
2019-04-07T23:43:46.592Z,0.00
2019-04-07T23:46:23.158Z,0.00
2019-04-07T23:48:51.849Z,0.00
2019-04-07T23:51:21.752Z,0.00
2019-04-07T23:54:11.799Z,0.00
2019-04-07T23:56:44.665Z,0.00
2019-04-07T23:59:14.865Z,0.00
